createdAt,value
2022-09-09T00:01:31.615Z,164.65
2022-09-09T00:04:07.284Z,142.15
2022-09-09T00:06:47.531Z,109.03
2022-09-09T00:09:19.014Z,164.80
2022-09-09T00:11:53.690Z,164.63
2022-09-09T00:14:29.431Z,205.98
2022-09-09T00:17:01.137Z,180.25
2022-09-09T00:19:38.512Z,186.82
2022-09-09T00:22:17.648Z,196.82
2022-09-09T00:24:48.116Z,171.25
2022-09-09T00:27:23.757Z,164.35
2022-09-09T00:29:57.089Z,200.48
2022-09-09T00:32:29.520Z,195.38
2022-09-09T00:35:03.852Z,168.98
2022-09-09T00:40:15.282Z,192.88
2022-09-09T00:42:46.980Z,178.95
2022-09-09T00:45:32.829Z,174.18
2022-09-09T00:48:08.198Z,165.60
2022-09-09T00:50:49.848Z,176.15
2022-09-09T00:53:30.903Z,193.02
2022-09-09T00:56:10.095Z,176.57
2022-09-09T00:58:38.090Z,161.15
2022-09-09T01:01:08.769Z,167.73
2022-09-09T01:03:38.264Z,161.73
2022-09-09T01:06:18.358Z,167.55
2022-09-09T01:09:18.570Z,165.10
2022-09-09T01:11:57.286Z,150.13
2022-09-09T01:14:40.803Z,138.02
2022-09-09T01:17:17.051Z,136.60
2022-09-09T01:19:59.720Z,134.55
2022-09-09T01:22:37.549Z,137.65
2022-09-09T01:25:23.432Z,141.18
2022-09-09T01:28:13.281Z,159.43
2022-09-09T01:30:43.436Z,114.30
2022-09-09T01:33:17.864Z,129.60
2022-09-09T01:35:52.910Z,133.77
2022-09-09T01:38:23.451Z,131.82
2022-09-09T01:40:53.962Z,131.35
2022-09-09T01:43:29.122Z,127.88
2022-09-09T01:46:00.879Z,138.25
2022-09-09T01:48:30.559Z,119.28
2022-09-09T01:51:07.652Z,125.60
2022-09-09T01:53:35.665Z,124.35
2022-09-09T01:56:17.461Z,131.38
2022-09-09T01:59:12.936Z,131.25
2022-09-09T02:01:58.785Z,127.90
2022-09-09T02:04:37.990Z,111.45
2022-09-09T02:07:22.258Z,129.07
2022-09-09T02:09:56.861Z,119.43
2022-09-09T02:12:27.511Z,126.97
2022-09-09T02:15:05.908Z,113.88
2022-09-09T02:17:44.364Z,131.90
2022-09-09T02:20:17.843Z,139.35
2022-09-09T02:22:53.400Z,131.43
2022-09-09T02:25:26.658Z,129.10
2022-09-09T02:27:59.882Z,112.75
2022-09-09T02:30:31.627Z,92.55
2022-09-09T02:33:03.257Z,131.32
2022-09-09T02:36:07.820Z,118.38
2022-09-09T02:38:42.359Z,112.18
2022-09-09T02:41:14.206Z,115.03
2022-09-09T02:43:42.311Z,135.95
2022-09-09T02:46:32.096Z,98.32
2022-09-09T02:49:06.863Z,123.05
2022-09-09T02:51:48.824Z,121.90
2022-09-09T02:54:24.573Z,109.03
2022-09-09T02:56:55.817Z,128.85
2022-09-09T02:59:31.287Z,105.03
2022-09-09T03:02:00.900Z,111.80
2022-09-09T03:04:29.943Z,101.78
2022-09-09T03:06:59.397Z,104.22
2022-09-09T03:09:27.961Z,120.30
2022-09-09T03:11:57.155Z,113.38
2022-09-09T03:14:26.437Z,97.53
2022-09-09T03:16:57.456Z,103.78
2022-09-09T03:19:27.592Z,111.32
2022-09-09T03:21:55.795Z,115.50
2022-09-09T03:24:25.385Z,114.10
2022-09-09T03:26:53.819Z,95.82
2022-09-09T03:29:22.630Z,117.97
2022-09-09T03:31:52.360Z,103.85
2022-09-09T03:34:20.487Z,100.88
2022-09-09T03:36:50.755Z,98.72
2022-09-09T03:39:19.878Z,91.68
2022-09-09T03:41:49.462Z,79.15
2022-09-09T03:44:17.556Z,93.55
2022-09-09T03:46:45.956Z,90.07
2022-09-09T03:49:16.425Z,82.18
2022-09-09T03:51:44.525Z,95.13
2022-09-09T03:54:16.611Z,83.95
2022-09-09T03:56:44.817Z,93.55
2022-09-09T03:59:15.442Z,91.68
2022-09-09T04:01:46.352Z,92.70
2022-09-09T04:04:14.931Z,78.32
2022-09-09T04:06:42.953Z,78.65
2022-09-09T04:09:11.332Z,71.82
2022-09-09T04:11:40.714Z,70.35
2022-09-09T04:14:10.045Z,60.97
2022-09-09T04:16:38.847Z,64.57
2022-09-09T04:19:07.632Z,66.00
2022-09-09T04:21:36.412Z,59.55
2022-09-09T04:24:04.581Z,55.85
2022-09-09T04:26:32.717Z,53.15
2022-09-09T04:29:02.757Z,54.72
2022-09-09T04:31:31.297Z,57.72
2022-09-09T04:33:59.391Z,47.40
2022-09-09T04:36:28.194Z,53.05
2022-09-09T04:39:00.817Z,53.53
2022-09-09T04:41:29.218Z,49.30
2022-09-09T04:43:57.361Z,50.38
2022-09-09T04:46:26.891Z,51.83
2022-09-09T04:48:55.547Z,44.88
2022-09-09T04:51:28.084Z,45.00
2022-09-09T04:53:56.379Z,38.80
2022-09-09T04:56:26.948Z,38.05
2022-09-09T05:01:51.320Z,38.45
2022-09-09T05:04:20.425Z,38.10
2022-09-09T05:06:49.421Z,35.25
2022-09-09T05:09:17.616Z,37.35
2022-09-09T05:11:47.393Z,34.65
2022-09-09T05:14:25.586Z,39.30
2022-09-09T05:16:57.288Z,27.40
2022-09-09T05:19:26.048Z,34.60
2022-09-09T05:21:55.447Z,32.25
2022-09-09T05:24:29.407Z,29.08
2022-09-09T05:27:02.644Z,29.13
2022-09-09T05:29:30.976Z,33.30
2022-09-09T05:32:00.931Z,33.58
2022-09-09T05:34:29.297Z,30.00
2022-09-09T05:36:57.454Z,31.63
2022-09-09T05:39:26.483Z,31.35
2022-09-09T05:41:54.617Z,35.03
2022-09-09T05:44:24.388Z,33.58
2022-09-09T05:46:52.694Z,37.20
2022-09-09T05:49:22.498Z,30.15
2022-09-09T05:51:51.754Z,32.40
2022-09-09T05:54:21.709Z,33.20
2022-09-09T05:56:53.813Z,29.15
2022-09-09T05:59:22.707Z,25.88
2022-09-09T06:01:53.375Z,29.13
2022-09-09T06:04:28.237Z,25.40
2022-09-09T06:06:56.466Z,27.98
2022-09-09T06:09:25.009Z,27.58
2022-09-09T06:11:55.453Z,25.30
2022-09-09T06:14:26.729Z,20.83
2022-09-09T06:16:55.722Z,21.48
2022-09-09T06:19:27.842Z,30.55
2022-09-09T06:22:00.601Z,18.88
2022-09-09T06:24:31.205Z,26.30
2022-09-09T06:27:01.420Z,31.77
2022-09-09T06:29:33.611Z,28.83
2022-09-09T06:32:03.658Z,26.63
2022-09-09T06:34:32.453Z,20.45
2022-09-09T06:37:02.949Z,28.75
2022-09-09T06:39:37.476Z,16.45
2022-09-09T06:42:05.890Z,16.20
2022-09-09T06:44:56.914Z,14.35
2022-09-09T06:47:47.889Z,19.55
2022-09-09T06:50:17.745Z,24.95
2022-09-09T06:52:49.736Z,15.90
2022-09-09T06:55:18.697Z,19.65
2022-09-09T06:57:47.067Z,12.98
2022-09-09T07:00:20.317Z,10.43
2022-09-09T07:02:49.093Z,8.52
2022-09-09T07:05:17.485Z,6.28
2022-09-09T07:07:48.999Z,6.82
2022-09-09T07:10:20.257Z,8.35
2022-09-09T07:12:53.080Z,5.88
2022-09-09T07:15:23.903Z,5.50
2022-09-09T07:17:52.307Z,4.30
2022-09-09T07:20:21.159Z,8.48
2022-09-09T07:22:51.084Z,3.97
2022-09-09T07:25:19.105Z,2.50
2022-09-09T07:27:48.328Z,4.93
2022-09-09T07:30:22.003Z,5.45
2022-09-09T07:32:54.519Z,3.33
2022-09-09T07:35:22.801Z,2.97
2022-09-09T07:37:52.205Z,7.35
2022-09-09T07:40:22.912Z,5.70
2022-09-09T07:42:51.519Z,2.50
2022-09-09T07:45:19.753Z,2.85
2022-09-09T07:47:49.760Z,4.85
2022-09-09T07:50:18.511Z,6.03
2022-09-09T07:52:46.481Z,3.38
2022-09-09T07:55:17.013Z,5.43
2022-09-09T07:57:45.423Z,4.68
2022-09-09T08:00:15.814Z,4.95
2022-09-09T08:02:49.595Z,6.57
2022-09-09T08:05:19.128Z,3.90
2022-09-09T08:07:48.282Z,2.13
2022-09-09T08:10:19.045Z,3.10
2022-09-09T08:13:07.713Z,3.80
2022-09-09T08:15:38.957Z,2.28
2022-09-09T08:18:07.186Z,5.28
2022-09-09T08:20:38.472Z,4.30
2022-09-09T08:23:06.901Z,3.70
2022-09-09T08:25:37.289Z,2.17
2022-09-09T08:28:05.259Z,3.38
2022-09-09T08:30:33.501Z,4.32
2022-09-09T08:33:01.743Z,3.33
2022-09-09T08:35:33.736Z,2.53
2022-09-09T08:38:04.655Z,3.53
2022-09-09T08:40:44.335Z,5.75
2022-09-09T08:43:13.437Z,1.77
2022-09-09T08:45:52.773Z,2.17
2022-09-09T08:48:38.947Z,2.30
2022-09-09T08:51:08.757Z,6.20
2022-09-09T08:53:44.050Z,2.75
2022-09-09T08:56:17.532Z,2.50
2022-09-09T08:58:51.777Z,4.72
2022-09-09T09:01:41.644Z,2.78
2022-09-09T09:04:25.274Z,1.92
2022-09-09T09:07:06.129Z,6.20
2022-09-09T09:09:46.267Z,2.53
2022-09-09T09:12:21.306Z,6.13
2022-09-09T09:14:51.074Z,2.75
2022-09-09T09:17:22.424Z,3.03
2022-09-09T09:19:51.605Z,4.03
2022-09-09T09:22:23.197Z,1.70
2022-09-09T09:24:57.966Z,4.32
2022-09-09T09:27:36.448Z,2.10
2022-09-09T09:30:26.753Z,4.15
2022-09-09T09:33:00.442Z,3.25
2022-09-09T09:35:28.701Z,4.88
2022-09-09T09:40:59.846Z,6.05
2022-09-09T09:43:31.736Z,3.00
2022-09-09T09:46:18.444Z,5.13
2022-09-09T09:48:59.043Z,4.25
2022-09-09T09:51:30.294Z,2.10
2022-09-09T09:54:10.800Z,3.60
2022-09-09T09:56:40.567Z,2.92
2022-09-09T09:59:38.619Z,4.45
2022-09-09T10:02:17.739Z,3.70
2022-09-09T10:04:48.691Z,4.43
2022-09-09T10:07:21.095Z,2.97
2022-09-09T10:09:54.514Z,4.75
2022-09-09T10:12:35.242Z,11.13
2022-09-09T10:15:14.294Z,4.93
2022-09-09T10:17:55.902Z,4.10
2022-09-09T10:20:35.363Z,7.97
2022-09-09T10:23:17.665Z,4.70
2022-09-09T10:26:10.084Z,4.38
2022-09-09T10:29:29.307Z,3.00
2022-09-09T10:32:11.802Z,3.47
2022-09-09T10:34:57.127Z,3.47
2022-09-09T10:37:40.732Z,3.33
2022-09-09T10:40:25.605Z,6.82
2022-09-09T10:42:56.280Z,7.22
2022-09-09T10:45:35.701Z,1.63
2022-09-09T10:48:21.917Z,3.10
2022-09-09T10:51:01.111Z,1.58
2022-09-09T10:53:44.360Z,3.65
2022-09-09T10:56:15.705Z,3.22
2022-09-09T10:58:50.023Z,5.90
2022-09-09T11:01:23.983Z,4.13
2022-09-09T11:03:57.477Z,2.90
2022-09-09T11:06:32.044Z,6.57
2022-09-09T11:09:02.923Z,2.88
2022-09-09T11:11:38.100Z,2.17
2022-09-09T11:14:12.516Z,3.75
2022-09-09T11:16:46.560Z,3.10
2022-09-09T11:19:23.267Z,5.43
2022-09-09T11:21:52.975Z,4.43
2022-09-09T11:24:25.596Z,1.75
2022-09-09T11:27:00.283Z,1.98
2022-09-09T11:30:10.104Z,2.55
2022-09-09T11:33:06.016Z,5.22
2022-09-09T11:35:46.426Z,1.98
2022-09-09T11:38:23.341Z,3.33
2022-09-09T11:41:00.170Z,3.40
2022-09-09T11:43:34.675Z,2.97
2022-09-09T11:46:04.646Z,3.53
2022-09-09T11:48:36.611Z,3.38
2022-09-09T11:51:11.090Z,4.93
2022-09-09T11:53:53.928Z,3.35
2022-09-09T11:56:32.118Z,4.60
2022-09-09T11:59:04.430Z,5.18
2022-09-09T12:01:38.056Z,3.90
2022-09-09T12:04:32.461Z,5.15
2022-09-09T12:07:05.047Z,5.43
2022-09-09T12:09:49.356Z,7.15
2022-09-09T12:12:29.876Z,5.75
2022-09-09T12:15:04.112Z,5.88
2022-09-09T12:20:13.179Z,6.07
2022-09-09T12:23:02.534Z,4.88
2022-09-09T12:25:40.171Z,6.75
2022-09-09T12:28:13.981Z,11.23
2022-09-09T12:30:51.451Z,13.93
2022-09-09T12:33:21.205Z,8.55
2022-09-09T12:35:54.446Z,16.73
2022-09-09T12:38:31.445Z,8.63
2022-09-09T12:41:01.403Z,8.18
2022-09-09T12:43:30.363Z,11.50
2022-09-09T12:46:02.032Z,7.03
2022-09-09T12:48:36.364Z,10.10
2022-09-09T12:53:37.580Z,13.55
2022-09-09T12:56:08.467Z,11.75
2022-09-09T12:58:39.106Z,13.52
2022-09-09T13:01:09.384Z,10.32
2022-09-09T13:03:46.622Z,16.50
2022-09-09T13:06:20.704Z,13.05
2022-09-09T13:08:50.454Z,11.23
2022-09-09T13:11:22.195Z,11.38
2022-09-09T13:13:54.881Z,12.75
2022-09-09T13:16:27.493Z,7.93
2022-09-09T13:18:56.884Z,11.80
2022-09-09T13:21:35.517Z,13.18
2022-09-09T13:24:08.433Z,8.55
2022-09-09T13:26:39.652Z,9.05
2022-09-09T13:29:19.776Z,9.73
2022-09-09T13:31:48.563Z,8.80
2022-09-09T13:34:29.401Z,12.20
2022-09-09T13:37:02.523Z,8.18
2022-09-09T13:39:32.124Z,8.57
2022-09-09T13:42:00.475Z,6.97
2022-09-09T13:44:30.833Z,6.07
2022-09-09T13:47:09.418Z,7.45
2022-09-09T13:49:38.689Z,4.32
2022-09-09T13:52:10.968Z,7.72
2022-09-09T13:54:40.742Z,6.65
2022-09-09T13:57:18.267Z,6.80
2022-09-09T14:00:05.209Z,10.15
2022-09-09T14:02:33.810Z,10.35
2022-09-09T14:05:01.875Z,8.98
2022-09-09T14:07:30.092Z,9.48
2022-09-09T14:10:01.330Z,10.27
2022-09-09T14:12:29.889Z,9.40
2022-09-09T14:14:57.916Z,14.02
2022-09-09T14:17:26.230Z,13.95
2022-09-09T14:19:54.235Z,16.35
2022-09-09T14:22:22.515Z,30.52
2022-09-09T14:24:50.695Z,11.48
2022-09-09T14:27:20.910Z,13.52
2022-09-09T14:29:49.086Z,7.72
2022-09-09T14:32:17.409Z,11.70
2022-09-09T14:34:45.612Z,5.93
2022-09-09T14:37:13.834Z,11.25
2022-09-09T14:39:41.869Z,10.52
2022-09-09T14:42:12.122Z,11.82
2022-09-09T14:44:41.595Z,9.18
2022-09-09T14:47:10.301Z,9.82
2022-09-09T14:49:39.855Z,13.93
2022-09-09T14:52:10.265Z,11.45
2022-09-09T14:54:38.464Z,13.43
2022-09-09T14:57:06.473Z,14.10
2022-09-09T14:59:35.389Z,19.05
2022-09-09T15:02:05.537Z,17.98
2022-09-09T15:04:33.663Z,19.02
2022-09-09T15:07:01.715Z,14.88
2022-09-09T15:09:30.175Z,17.92
2022-09-09T15:11:58.365Z,20.52
2022-09-09T15:14:27.045Z,16.27
2022-09-09T15:16:55.158Z,15.55
2022-09-09T15:19:24.758Z,18.70
2022-09-09T15:21:52.778Z,21.20
2022-09-09T15:24:20.992Z,12.70
2022-09-09T15:26:48.987Z,17.75
2022-09-09T15:29:17.383Z,15.20
2022-09-09T15:31:45.352Z,17.10
2022-09-09T15:34:14.801Z,18.13
2022-09-09T15:36:47.713Z,14.77
2022-09-09T15:39:17.512Z,17.30
2022-09-09T15:41:46.658Z,16.48
2022-09-09T15:44:15.504Z,13.88
2022-09-09T15:46:45.527Z,15.63
2022-09-09T15:49:15.519Z,24.15
2022-09-09T15:51:46.425Z,15.60
2022-09-09T15:54:17.796Z,14.95
2022-09-09T15:56:46.543Z,13.07
2022-09-09T15:59:15.851Z,12.38
2022-09-09T16:01:45.017Z,15.52
2022-09-09T16:04:13.629Z,14.68
2022-09-09T16:06:41.628Z,11.48
2022-09-09T16:09:11.532Z,12.48
2022-09-09T16:11:41.517Z,11.55
2022-09-09T16:14:09.729Z,13.98
2022-09-09T16:16:38.089Z,12.88
2022-09-09T16:19:07.980Z,12.98
2022-09-09T16:21:40.720Z,12.75
2022-09-09T16:24:11.487Z,12.10
2022-09-09T16:26:42.135Z,9.10
2022-09-09T16:29:10.726Z,8.05
2022-09-09T16:31:39.197Z,11.18
2022-09-09T16:34:07.232Z,10.70
2022-09-09T16:36:36.926Z,8.63
2022-09-09T16:39:07.149Z,9.65
2022-09-09T16:41:36.752Z,10.75
2022-09-09T16:44:06.791Z,9.85
2022-09-09T16:46:37.142Z,8.95
2022-09-09T16:49:07.532Z,6.25
2022-09-09T16:51:37.279Z,9.30
2022-09-09T16:54:08.200Z,10.07
2022-09-09T16:56:39.412Z,10.95
2022-09-09T16:59:09.580Z,10.75
2022-09-09T17:01:39.287Z,8.23
2022-09-09T17:04:09.547Z,9.90
2022-09-09T17:06:39.114Z,11.63
2022-09-09T17:09:09.758Z,9.30
2022-09-09T17:11:40.430Z,14.73
2022-09-09T17:14:10.800Z,15.98
2022-09-09T17:16:40.663Z,16.90
2022-09-09T17:19:10.072Z,12.25
2022-09-09T17:21:54.567Z,13.57
2022-09-09T17:24:27.460Z,92.30
2022-09-09T17:26:57.282Z,114.38
2022-09-09T17:29:25.873Z,59.92
2022-09-09T17:31:55.002Z,15.32
2022-09-09T17:34:23.740Z,22.58
2022-09-09T17:36:51.970Z,17.60
2022-09-09T17:39:20.018Z,26.98
2022-09-09T17:41:48.369Z,22.65
2022-09-09T17:44:17.944Z,19.77
2022-09-09T17:46:46.543Z,17.83
2022-09-09T17:49:16.826Z,15.88
2022-09-09T17:51:46.291Z,23.35
2022-09-09T17:54:17.343Z,28.50
2022-09-09T17:56:45.978Z,27.90
2022-09-09T17:59:15.486Z,21.13
2022-09-09T18:01:46.634Z,25.92
2022-09-09T18:04:16.782Z,22.55
2022-09-09T18:06:47.170Z,21.00
2022-09-09T18:09:17.240Z,23.35
2022-09-09T18:11:47.915Z,29.63
2022-09-09T18:14:18.338Z,22.63
2022-09-09T18:16:48.914Z,39.63
2022-09-09T18:19:19.067Z,42.88
2022-09-09T18:21:49.183Z,33.40
2022-09-09T18:24:18.898Z,33.92
2022-09-09T18:26:48.299Z,32.33
2022-09-09T18:29:19.953Z,36.30
2022-09-09T18:31:49.631Z,27.35
2022-09-09T18:34:23.183Z,26.27
2022-09-09T18:36:54.527Z,24.17
2022-09-09T18:39:24.960Z,23.52
2022-09-09T18:41:55.409Z,24.77
2022-09-09T18:44:27.488Z,23.13
2022-09-09T18:46:56.839Z,28.15
2022-09-09T18:49:26.167Z,31.52
2022-09-09T18:51:54.630Z,27.25
2022-09-09T18:54:24.153Z,23.75
2022-09-09T18:56:52.875Z,36.33
2022-09-09T18:59:23.876Z,37.63
2022-09-09T19:01:54.003Z,33.33
2022-09-09T19:04:27.488Z,36.00
2022-09-09T19:06:58.604Z,46.20
2022-09-09T19:09:29.215Z,32.38
2022-09-09T19:11:57.397Z,33.35
2022-09-09T19:14:25.455Z,38.15
2022-09-09T19:16:54.027Z,45.03
2022-09-09T19:19:26.328Z,47.53
2022-09-09T19:21:55.218Z,36.65
2022-09-09T19:24:25.103Z,32.25
2022-09-09T19:26:54.863Z,33.38
2022-09-09T19:29:24.865Z,46.63
2022-09-09T19:32:31.644Z,43.22
2022-09-09T19:34:44.469Z,47.72
2022-09-09T19:37:17.668Z,49.05
2022-09-09T19:39:46.628Z,43.08
2022-09-09T19:42:14.865Z,36.22
2022-09-09T19:44:43.008Z,62.25
2022-09-09T19:47:11.097Z,42.55
2022-09-09T19:49:39.116Z,45.97
2022-09-09T19:52:08.487Z,53.95
2022-09-09T19:54:36.542Z,64.65
2022-09-09T19:57:05.735Z,41.60
2022-09-09T19:59:33.809Z,50.20
2022-09-09T20:02:01.935Z,67.18
2022-09-09T20:04:30.412Z,67.25
2022-09-09T20:06:58.395Z,81.38
2022-09-09T20:09:28.967Z,61.53
2022-09-09T20:11:57.078Z,46.10
2022-09-09T20:14:25.201Z,75.25
2022-09-09T20:16:53.272Z,71.20
2022-09-09T20:19:21.404Z,75.95
2022-09-09T20:21:49.600Z,55.40
2022-09-09T20:24:20.075Z,99.07
2022-09-09T20:26:49.661Z,71.07
2022-09-09T20:29:19.760Z,84.20
2022-09-09T20:31:49.303Z,68.18
2022-09-09T20:34:19.561Z,76.55
2022-09-09T20:36:48.466Z,79.93
2022-09-09T20:39:19.777Z,74.38
2022-09-09T20:41:50.314Z,70.57
2022-09-09T20:44:20.023Z,71.95
2022-09-09T20:46:49.543Z,70.38
2022-09-09T20:49:19.450Z,78.72
2022-09-09T20:51:49.830Z,60.38
2022-09-09T20:54:19.701Z,83.68
2022-09-09T20:56:50.306Z,61.08
2022-09-09T20:59:20.157Z,74.78
2022-09-09T21:01:48.655Z,56.70
2022-09-09T21:04:18.418Z,53.97
2022-09-09T21:06:47.035Z,54.60
2022-09-09T21:09:15.491Z,63.60
2022-09-09T21:11:43.496Z,57.17
2022-09-09T21:14:12.884Z,54.40
2022-09-09T21:16:40.907Z,64.50
2022-09-09T21:19:09.510Z,67.32
2022-09-09T21:21:37.866Z,78.95
2022-09-09T21:24:06.330Z,69.07
2022-09-09T21:26:35.542Z,54.20
2022-09-09T21:29:03.673Z,54.83
2022-09-09T21:31:33.393Z,66.85
2022-09-09T21:34:01.705Z,73.70
2022-09-09T21:36:29.703Z,77.15
2022-09-09T21:38:59.204Z,80.30
2022-09-09T21:41:27.378Z,75.47
2022-09-09T21:43:56.519Z,70.45
2022-09-09T21:46:26.565Z,67.70
2022-09-09T21:48:57.471Z,63.50
2022-09-09T21:51:26.220Z,67.35
2022-09-09T21:53:56.639Z,57.78
2022-09-09T21:56:26.768Z,64.82
2022-09-09T21:58:58.859Z,71.00
2022-09-09T22:01:27.417Z,56.35
2022-09-09T22:03:57.034Z,50.25
2022-09-09T22:06:25.027Z,54.40
2022-09-09T22:08:53.944Z,63.03
2022-09-09T22:11:24.360Z,56.08
2022-09-09T22:13:54.072Z,93.60
2022-09-09T22:16:23.997Z,83.18
2022-09-09T22:18:53.905Z,80.45
2022-09-09T22:21:23.989Z,89.38
2022-09-09T22:23:54.158Z,89.40
2022-09-09T22:26:22.771Z,84.45
2022-09-09T22:28:51.764Z,97.88
2022-09-09T22:31:20.822Z,69.00
2022-09-09T22:33:49.035Z,88.28
2022-09-09T22:36:17.200Z,78.55
2022-09-09T22:38:46.682Z,69.32
2022-09-09T22:41:14.931Z,66.82
2022-09-09T22:43:44.265Z,71.97
2022-09-09T22:46:13.636Z,105.55
2022-09-09T22:48:43.200Z,86.70
2022-09-09T22:51:13.500Z,65.90
2022-09-09T22:53:42.461Z,94.13
2022-09-09T22:56:17.275Z,93.53
2022-09-09T22:58:46.915Z,98.68
2022-09-09T23:01:17.309Z,104.57
2022-09-09T23:03:46.884Z,98.78
2022-09-09T23:06:21.807Z,92.47
2022-09-09T23:08:51.466Z,65.43
2022-09-09T23:11:21.598Z,87.03
2022-09-09T23:13:53.003Z,88.15
2022-09-09T23:16:23.892Z,85.78
2022-09-09T23:18:52.606Z,76.30
2022-09-09T23:21:21.000Z,78.75
2022-09-09T23:23:49.184Z,85.57
2022-09-09T23:26:20.817Z,70.45
2022-09-09T23:28:52.548Z,70.03
2022-09-09T23:31:25.191Z,79.57
2022-09-09T23:33:54.866Z,87.50
2022-09-09T23:36:24.890Z,73.55
2022-09-09T23:38:54.598Z,59.28
2022-09-09T23:41:22.942Z,66.90
2022-09-09T23:43:54.197Z,71.53
2022-09-09T23:46:25.235Z,64.82
2022-09-09T23:48:53.244Z,62.22
2022-09-09T23:51:23.969Z,64.38
2022-09-09T23:53:53.602Z,59.63
2022-09-09T23:56:23.109Z,58.65
2022-09-09T23:58:53.330Z,49.88
